sensor_id;sensor_type;location;lat;lon;timestamp;pressure;altitude;pressure_sealevel;temperature;humidity
3590;BME280;1809;48.470;9.226;2023-08-24T00:02:00;112780.72;;;20.17;100.00
3590;BME280;1809;48.470;9.226;2023-08-24T00:04:28;112424.19;;;20.13;100.00
3590;BME280;1809;48.470;9.226;2023-08-24T00:06:54;112410.41;;;20.05;100.00
3590;BME280;1809;48.470;9.226;2023-08-24T00:09:20;111008.84;;;20.02;100.00
3590;BME280;1809;48.470;9.226;2023-08-24T00:11:57;110309.22;;;20.01;100.00
3590;BME280;1809;48.470;9.226;2023-08-24T00:14:31;112073.22;;;20.12;100.00
3590;BME280;1809;48.470;9.226;2023-08-24T00:16:57;113122.56;;;20.13;100.00
3590;BME280;1809;48.470;9.226;2023-08-24T00:19:25;114171.31;;;20.13;100.00
3590;BME280;1809;48.470;9.226;2023-08-24T00:21:51;114518.75;;;20.12;100.00
3590;BME280;1809;48.470;9.226;2023-08-24T00:24:19;114145.19;;;19.99;100.00
3590;BME280;1809;48.470;9.226;2023-08-24T00:26:44;115182.75;;;19.94;100.00
3590;BME280;1809;48.470;9.226;2023-08-24T00:29:10;116571.72;;;19.89;100.00
3590;BME280;1809;48.470;9.226;2023-08-24T00:31:36;118657.28;;;19.83;100.00
3590;BME280;1809;48.470;9.226;2023-08-24T00:34:01;119696.44;;;19.78;100.00
3590;BME280;1809;48.470;9.226;2023-08-24T00:36:29;120749.59;;;19.80;100.00
3590;BME280;1809;48.470;9.226;2023-08-24T00:38:57;120739.72;;;19.75;100.00
3590;BME280;1809;48.470;9.226;2023-08-24T00:41:23;120401.78;;;19.81;100.00
3590;BME280;1809;48.470;9.226;2023-08-24T00:43:50;119704.28;;;19.82;100.00
3590;BME280;1809;48.470;9.226;2023-08-24T00:46:16;117965.84;;;19.87;100.00
3590;BME280;1809;48.470;9.226;2023-08-24T00:48:42;116223.22;;;19.90;100.00
3590;BME280;1809;48.470;9.226;2023-08-24T00:51:07;114477.63;;;19.90;100.00
3590;BME280;1809;48.470;9.226;2023-08-24T00:53:33;114824.06;;;19.89;100.00
3590;BME280;1809;48.470;9.226;2023-08-24T00:55:59;115172.41;;;19.88;100.00
3590;BME280;1809;48.470;9.226;2023-08-24T00:58:28;116557.41;;;19.81;100.00
3590;BME280;1809;48.470;9.226;2023-08-24T01:00:57;117593.25;;;19.75;100.00
3590;BME280;1809;48.470;9.226;2023-08-24T01:03:23;118632.06;;;19.70;100.00
3590;BME280;1809;48.470;9.226;2023-08-24T01:05:49;120384.06;;;19.72;100.00
3590;BME280;1809;48.470;9.226;2023-08-24T01:08:15;121775.19;;;19.68;100.00
3590;BME280;1809;48.470;9.226;2023-08-24T01:13:12;122828.88;;;19.70;100.00
3590;BME280;1809;48.470;9.226;2023-08-24T01:16:13;123870.75;;;19.66;100.00
3590;BME280;1809;48.470;9.226;2023-08-24T01:18:41;123871.78;;;19.66;100.00
3590;BME280;1809;48.470;9.226;2023-08-24T01:21:08;124566.81;;;19.64;100.00
3590;BME280;1809;48.470;9.226;2023-08-24T01:23:41;124914.84;;;19.63;100.00
3590;BME280;1809;48.470;9.226;2023-08-24T01:26:16;120714.03;;;19.62;100.00
3590;BME280;1809;48.470;9.226;2023-08-24T01:28:46;120010.81;;;19.60;100.00
3590;BME280;1809;48.470;9.226;2023-08-24T01:31:15;120005.91;;;19.57;100.00
3590;BME280;1809;48.470;9.226;2023-08-24T01:33:45;119305.81;;;19.57;100.00
3590;BME280;1809;48.470;9.226;2023-08-24T01:36:12;116875.28;;;19.65;100.00
3590;BME280;1809;48.470;9.226;2023-08-24T01:38:38;116179.59;;;19.66;100.00
3590;BME280;1809;48.470;9.226;2023-08-24T01:41:22;116525.06;;;19.64;100.00
3590;BME280;1809;48.470;9.226;2023-08-24T01:43:54;116180.53;;;19.67;100.00
3590;BME280;1809;48.470;9.226;2023-08-24T01:46:25;116172.94;;;19.63;100.00
3590;BME280;1809;48.470;9.226;2023-08-24T01:48:54;116537.41;;;19.71;100.00
3590;BME280;1809;48.470;9.226;2023-08-24T01:51:21;117232.31;;;19.69;100.00
3590;BME280;1809;48.470;9.226;2023-08-24T01:53:48;117574.00;;;19.65;100.00
3590;BME280;1809;48.470;9.226;2023-08-24T01:56:16;118256.44;;;19.56;100.00
3590;BME280;1809;48.470;9.226;2023-08-24T01:58:41;120353.53;;;19.56;100.00
3590;BME280;1809;48.470;9.226;2023-08-24T02:01:08;121407.53;;;19.59;100.00
3590;BME280;1809;48.470;9.226;2023-08-24T02:03:34;119317.53;;;19.63;100.00
3590;BME280;1809;48.470;9.226;2023-08-24T02:06:04;118946.59;;;19.52;100.00
3590;BME280;1809;48.470;9.226;2023-08-24T02:08:32;119649.50;;;19.54;100.00
3590;BME280;1809;48.470;9.226;2023-08-24T02:10:57;121733.38;;;19.47;100.00
3590;BME280;1809;48.470;9.226;2023-08-24T02:13:22;123816.00;;;19.39;100.00
3590;BME280;1809;48.470;9.226;2023-08-24T02:15:48;125205.47;;;19.33;100.00
3590;BME280;1809;48.470;9.226;2023-08-24T02:18:13;125900.34;;;19.31;100.00
3590;BME280;1809;48.470;9.226;2023-08-24T02:20:38;126591.16;;;19.26;100.00
3590;BME280;1809;48.470;9.226;2023-08-24T02:23:04;126607.72;;;19.34;100.00
3590;BME280;1809;48.470;9.226;2023-08-24T02:25:30;126252.47;;;19.32;100.00
3590;BME280;1809;48.470;9.226;2023-08-24T02:27:59;125886.94;;;19.24;100.00
3590;BME280;1809;48.470;9.226;2023-08-24T02:30:24;126600.47;;;19.31;100.00
3590;BME280;1809;48.470;9.226;2023-08-24T02:32:50;127310.13;;;19.36;100.00
3590;BME280;1809;48.470;9.226;2023-08-24T02:35:16;127291.38;;;19.26;100.00
3590;BME280;1809;48.470;9.226;2023-08-24T02:37:41;127982.28;;;19.22;100.00
3590;BME280;1809;48.470;9.226;2023-08-24T02:40:07;127981.22;;;19.21;100.00
3590;BME280;1809;48.470;9.226;2023-08-24T02:42:36;128671.13;;;19.16;100.00
3590;BME280;1809;48.470;9.226;2023-08-24T02:45:05;129710.25;;;19.11;100.00
3590;BME280;1809;48.470;9.226;2023-08-24T02:47:30;131108.47;;;19.09;100.00
3590;BME280;1809;48.470;9.226;2023-08-24T02:49:55;132164.25;;;19.11;100.00
3590;BME280;1809;48.470;9.226;2023-08-24T02:52:21;131474.03;;;19.16;100.00
3590;BME280;1809;48.470;9.226;2023-08-24T02:54:46;130423.75;;;19.17;100.00
3590;BME280;1809;48.470;9.226;2023-08-24T02:57:15;130070.16;;;19.15;100.00
3590;BME280;1809;48.470;9.226;2023-08-24T02:59:40;130425.84;;;19.18;100.00
3590;BME280;1809;48.470;9.226;2023-08-24T03:02:08;129371.63;;;19.16;100.00
3590;BME280;1809;48.470;9.226;2023-08-24T03:04:34;129735.78;;;19.23;100.00
3590;BME280;1809;48.470;9.226;2023-08-24T03:06:59;129370.56;;;19.16;100.00
3590;BME280;1809;48.470;9.226;2023-08-24T03:09:24;131458.91;;;19.09;100.00
3590;BME280;1809;48.470;9.226;2023-08-24T03:11:50;133566.69;;;19.11;100.00
3590;BME280;1809;48.470;9.226;2023-08-24T03:14:15;134634.31;;;19.18;100.00
3590;BME280;1809;48.470;9.226;2023-08-24T03:16:40;135340.50;;;19.20;100.00
3590;BME280;1809;48.470;9.226;2023-08-24T03:19:06;137076.31;;;19.12;100.00
3590;BME280;1809;48.470;9.226;2023-08-24T03:21:32;138123.91;;;19.09;100.00
3590;BME280;1809;48.470;9.226;2023-08-24T03:23:58;139512.63;;;19.02;100.00
3590;BME280;1809;48.470;9.226;2023-08-24T03:26:23;140205.91;;;18.98;100.00
3590;BME280;1809;48.470;9.226;2023-08-24T03:28:49;140905.00;;;18.97;100.00
3590;BME280;1809;48.470;9.226;2023-08-24T03:31:23;141587.97;;;18.88;100.00
3590;BME280;1809;48.470;9.226;2023-08-24T03:33:51;143004.19;;;18.93;100.00
3590;BME280;1809;48.470;9.226;2023-08-24T03:36:16;143710.81;;;18.94;100.00
3590;BME280;1809;48.470;9.226;2023-08-24T03:38:41;144068.31;;;18.97;100.00
3590;BME280;1809;48.470;9.226;2023-08-24T03:41:10;144414.03;;;18.94;100.00
3590;BME280;1809;48.470;9.226;2023-08-24T03:43:38;145115.00;;;18.93;100.00
3590;BME280;1809;48.470;9.226;2023-08-24T03:46:04;145818.53;;;18.93;100.00
3590;BME280;1809;48.470;9.226;2023-08-24T03:48:31;146154.75;;;18.87;100.00
3590;BME280;1809;48.470;9.226;2023-08-24T03:50:59;146146.31;;;18.83;100.00
3590;BME280;1809;48.470;9.226;2023-08-24T03:53:27;145445.22;;;18.84;100.00
3590;BME280;1809;48.470;9.226;2023-08-24T03:55:55;143684.84;;;18.83;100.00
3590;BME280;1809;48.470;9.226;2023-08-24T03:58:21;143676.56;;;18.79;100.00
3590;BME280;1809;48.470;9.226;2023-08-24T04:00:49;142990.09;;;18.87;100.00
3590;BME280;1809;48.470;9.226;2023-08-24T04:03:15;141927.69;;;18.83;100.00
3590;BME280;1809;48.470;9.226;2023-08-24T04:05:40;141576.34;;;18.83;100.00
3590;BME280;1809;48.470;9.226;2023-08-24T04:08:08;141215.75;;;18.79;100.00
3590;BME280;1809;48.470;9.226;2023-08-24T04:10:37;141565.88;;;18.78;100.00
3590;BME280;1809;48.470;9.226;2023-08-24T04:13:05;142269.69;;;18.79;100.00
3590;BME280;1809;48.470;9.226;2023-08-24T04:15:31;142275.50;;;18.82;100.00
3590;BME280;1809;48.470;9.226;2023-08-24T04:17:56;142630.44;;;18.83;100.00
3590;BME280;1809;48.470;9.226;2023-08-24T04:20:22;142632.75;;;18.84;100.00
3590;BME280;1809;48.470;9.226;2023-08-24T04:22:50;141939.31;;;18.88;100.00
3590;BME280;1809;48.470;9.226;2023-08-24T04:25:15;141262.16;;;18.99;100.00
3590;BME280;1809;48.470;9.226;2023-08-24T04:27:40;139873.03;;;19.06;100.00
3590;BME280;1809;48.470;9.226;2023-08-24T04:30:07;137759.22;;;19.03;100.00
3590;BME280;1809;48.470;9.226;2023-08-24T04:32:36;137063.94;;;19.06;100.00
3590;BME280;1809;48.470;9.226;2023-08-24T04:35:02;136709.63;;;19.05;100.00
3590;BME280;1809;48.470;9.226;2023-08-24T04:37:28;137054.97;;;19.02;100.00
3590;BME280;1809;48.470;9.226;2023-08-24T04:39:53;137061.72;;;19.05;100.00
3590;BME280;1809;48.470;9.226;2023-08-24T04:42:21;137410.47;;;19.04;100.00
3590;BME280;1809;48.470;9.226;2023-08-24T04:44:47;138493.25;;;19.17;100.00
3590;BME280;1809;48.470;9.226;2023-08-24T04:47:12;138864.97;;;19.26;100.00
3590;BME280;1809;48.470;9.226;2023-08-24T04:49:37;138529.59;;;19.33;100.00
3590;BME280;1809;48.470;9.226;2023-08-24T04:52:03;138892.31;;;19.39;100.00
3590;BME280;1809;48.470;9.226;2023-08-24T04:54:30;137846.38;;;19.42;100.00
3590;BME280;1809;48.470;9.226;2023-08-24T04:56:55;135747.13;;;19.46;100.00
3590;BME280;1809;48.470;9.226;2023-08-24T04:59:20;135387.16;;;19.42;100.00
3590;BME280;1809;48.470;9.226;2023-08-24T05:01:49;134702.84;;;19.50;100.00
3590;BME280;1809;48.470;9.226;2023-08-24T05:04:17;133304.53;;;19.52;100.00
3590;BME280;1809;48.470;9.226;2023-08-24T05:06:42;131543.06;;;19.49;100.00
3590;BME280;1809;48.470;9.226;2023-08-24T05:09:07;130150.16;;;19.53;100.00
3590;BME280;1809;48.470;9.226;2023-08-24T05:11:33;128411.38;;;19.60;100.00
3590;BME280;1809;48.470;9.226;2023-08-24T05:13:58;125966.38;;;19.63;100.00
3590;BME280;1809;48.470;9.226;2023-08-24T05:16:33;125284.47;;;19.72;100.00
3590;BME280;1809;48.470;9.226;2023-08-24T05:18:58;119374.13;;;19.92;100.00
3590;BME280;1809;48.470;9.226;2023-08-24T05:21:23;117635.53;;;19.97;100.00
3590;BME280;1809;48.470;9.226;2023-08-24T05:23:49;116246.97;;;20.02;100.00
3590;BME280;1809;48.470;9.226;2023-08-24T05:26:14;113134.56;;;20.19;100.00
3590;BME280;1809;48.470;9.226;2023-08-24T05:28:47;110705.09;;;20.27;100.00
3590;BME280;1809;48.470;9.226;2023-08-24T05:31:12;108631.75;;;20.39;100.00
3590;BME280;1809;48.470;9.226;2023-08-24T05:33:38;103443.19;;;20.64;100.00
3590;BME280;1809;48.470;9.226;2023-08-24T05:36:03;98621.63;;;20.98;100.00
3590;BME280;1809;48.470;9.226;2023-08-24T05:38:29;89616.88;;;21.24;100.00
3590;BME280;1809;48.470;9.226;2023-08-24T05:40:57;86164.69;;;21.39;100.00
3590;BME280;1809;48.470;9.226;2023-08-24T05:43:25;72346.91;;;21.77;100.00
3590;BME280;1809;48.470;9.226;2023-08-24T05:45:50;52024.97;;;22.17;100.00
3590;BME280;1809;48.470;9.226;2023-08-24T05:48:16;36913.22;;;22.16;100.00
3590;BME280;1809;48.470;9.226;2023-08-24T05:50:50;26301.00;;;21.99;100.00
3590;BME280;1809;48.470;9.226;2023-08-24T05:53:15;53021.09;;;21.74;100.00
3590;BME280;1809;48.470;9.226;2023-08-24T05:55:41;69209.97;;;21.55;100.00
3590;BME280;1809;48.470;9.226;2023-08-24T05:58:06;83721.44;;;21.29;100.00
3590;BME280;1809;48.470;9.226;2023-08-24T06:00:32;96911.56;;;21.18;100.00
3590;BME280;1809;48.470;9.226;2023-08-24T06:02:58;100435.16;;;21.42;100.00
3590;BME280;1809;48.470;9.226;2023-08-24T06:05:23;90386.72;;;21.76;100.00
3590;BME280;1809;48.470;9.226;2023-08-24T06:07:51;59277.09;;;22.34;100.00
3590;BME280;1809;48.470;9.226;2023-08-24T06:10:17;2825.84;;;22.88;100.00
3590;BME280;1809;48.470;9.226;2023-08-24T06:12:46;-16813.22;;;23.17;100.00
3590;BME280;1809;48.470;9.226;2023-08-24T06:15:17;-16813.78;;;23.19;100.00
3590;BME280;1809;48.470;9.226;2023-08-24T06:17:47;-16815.16;;;23.24;100.00
3590;BME280;1809;48.470;9.226;2023-08-24T06:20:15;-15713.00;;;22.54;100.00
3590;BME280;1809;48.470;9.226;2023-08-24T06:22:43;17780.38;;;22.18;100.00
3590;BME280;1809;48.470;9.226;2023-08-24T06:25:08;59584.72;;;21.95;100.00
3590;BME280;1809;48.470;9.226;2023-08-24T06:27:34;79607.91;;;21.66;100.00
3590;BME280;1809;48.470;9.226;2023-08-24T06:29:59;92790.88;;;21.55;100.00
3590;BME280;1809;48.470;9.226;2023-08-24T06:32:24;102176.50;;;21.41;100.00
3590;BME280;1809;48.470;9.226;2023-08-24T06:34:50;110174.03;;;21.21;100.00
3590;BME280;1809;48.470;9.226;2023-08-24T06:37:22;118224.41;;;21.22;100.00
3590;BME280;1809;48.470;9.226;2023-08-24T06:39:47;117882.72;;;21.27;100.00
3590;BME280;1809;48.470;9.226;2023-08-24T06:42:12;120314.28;;;21.16;100.00
3590;BME280;1809;48.470;9.226;2023-08-24T06:44:41;121024.25;;;21.20;100.00
3590;BME280;1809;48.470;9.226;2023-08-24T06:47:06;123112.44;;;21.12;100.00
3590;BME280;1809;48.470;9.226;2023-08-24T06:49:31;123483.41;;;21.22;100.00
3590;BME280;1809;48.470;9.226;2023-08-24T06:51:57;123146.66;;;21.29;100.00
3590;BME280;1809;48.470;9.226;2023-08-24T06:54:22;123843.38;;;21.27;100.00
3590;BME280;1809;48.470;9.226;2023-08-24T06:56:48;123136.56;;;21.24;100.00
3590;BME280;1809;48.470;9.226;2023-08-24T06:59:13;124862.66;;;21.10;100.00
3590;BME280;1809;48.470;9.226;2023-08-24T07:01:39;126957.44;;;21.05;100.00
3590;BME280;1809;48.470;9.226;2023-08-24T07:04:12;128720.75;;;21.08;100.00
3590;BME280;1809;48.470;9.226;2023-08-24T07:06:37;130141.19;;;21.15;100.00
3590;BME280;1809;48.470;9.226;2023-08-24T07:09:02;130848.50;;;21.17;100.00
3590;BME280;1809;48.470;9.226;2023-08-24T07:11:31;129122.81;;;21.32;100.00
3590;BME280;1809;48.470;9.226;2023-08-24T07:13:57;127359.59;;;21.29;100.00
3590;BME280;1809;48.470;9.226;2023-08-24T07:16:22;127016.59;;;21.33;100.00
3590;BME280;1809;48.470;9.226;2023-08-24T07:18:47;124597.19;;;21.53;100.00
3590;BME280;1809;48.470;9.226;2023-08-24T07:21:15;124302.91;;;21.81;100.00
3590;BME280;1809;48.470;9.226;2023-08-24T07:23:42;122888.09;;;21.76;100.00
3590;BME280;1809;48.470;9.226;2023-08-24T07:26:07;121501.81;;;21.85;100.00
3590;BME280;1809;48.470;9.226;2023-08-24T07:28:34;113847.28;;;22.17;100.00
3590;BME280;1809;48.470;9.226;2023-08-24T07:31:07;112463.22;;;22.27;100.00
3590;BME280;1809;48.470;9.226;2023-08-24T07:33:32;102702.25;;;22.48;100.00
3590;BME280;1809;48.470;9.226;2023-08-24T07:35:57;94016.44;;;22.75;100.00
3590;BME280;1809;48.470;9.226;2023-08-24T07:38:23;88449.28;;;22.81;100.00
3590;BME280;1809;48.470;9.226;2023-08-24T07:40:48;64510.53;;;22.87;100.00
3590;BME280;1809;48.470;9.226;2023-08-24T07:43:13;21569.88;;;23.36;100.00
3590;BME280;1809;48.470;9.226;2023-08-24T07:45:39;-8636.63;;;23.73;100.00
3590;BME280;1809;48.470;9.226;2023-08-24T07:48:05;-16831.34;;;23.83;100.00
3590;BME280;1809;48.470;9.226;2023-08-24T07:50:35;-16831.06;;;23.82;100.00
3590;BME280;1809;48.470;9.226;2023-08-24T07:53:00;-16828.69;;;23.73;100.00
3590;BME280;1809;48.470;9.226;2023-08-24T07:55:25;-16827.59;;;23.69;100.00
3590;BME280;1809;48.470;9.226;2023-08-24T07:57:51;-16823.13;;;23.53;100.00
3590;BME280;1809;48.470;9.226;2023-08-24T08:00:16;-16822.84;;;23.52;100.00
3590;BME280;1809;48.470;9.226;2023-08-24T08:02:45;-16829.25;;;23.75;100.00
3590;BME280;1809;48.470;9.226;2023-08-24T08:05:10;-16829.97;;;23.78;100.00
3590;BME280;1809;48.470;9.226;2023-08-24T08:07:36;-16833.59;;;23.91;100.00
3590;BME280;1809;48.470;9.226;2023-08-24T08:10:12;-16842.50;;;24.23;100.00
3590;BME280;1809;48.470;9.226;2023-08-24T08:12:37;-16848.22;;;24.44;100.00
3590;BME280;1809;48.470;9.226;2023-08-24T08:15:06;-16859.25;;;24.84;100.00
3590;BME280;1809;48.470;9.226;2023-08-24T08:17:32;-16865.66;;;25.07;100.00
3590;BME280;1809;48.470;9.226;2023-08-24T08:19:58;-16868.16;;;25.16;100.00
3590;BME280;1809;48.470;9.226;2023-08-24T08:22:23;-16870.81;;;25.26;100.00
3590;BME280;1809;48.470;9.226;2023-08-24T08:24:50;-16874.84;;;25.40;100.00
3590;BME280;1809;48.470;9.226;2023-08-24T08:27:15;-16869.56;;;25.21;100.00
3590;BME280;1809;48.470;9.226;2023-08-24T08:29:41;-16877.22;;;25.49;100.00
3590;BME280;1809;48.470;9.226;2023-08-24T08:32:06;-16883.78;;;25.73;100.00
3590;BME280;1809;48.470;9.226;2023-08-24T08:34:32;-16886.97;;;25.84;100.00
3590;BME280;1809;48.470;9.226;2023-08-24T08:36:58;-16881.00;;;25.62;100.00
3590;BME280;1809;48.470;9.226;2023-08-24T08:39:23;-16875.84;;;25.44;100.00
3590;BME280;1809;48.470;9.226;2023-08-24T08:41:49;-16874.59;;;25.39;100.00
3590;BME280;1809;48.470;9.226;2023-08-24T08:44:15;-16871.78;;;25.29;100.00
3590;BME280;1809;48.470;9.226;2023-08-24T08:46:42;-16879.31;;;25.56;100.00
3590;BME280;1809;48.470;9.226;2023-08-24T08:49:11;-16886.00;;;25.81;100.00
3590;BME280;1809;48.470;9.226;2023-08-24T08:51:38;-16888.66;;;25.90;100.00
3590;BME280;1809;48.470;9.226;2023-08-24T08:54:06;-16901.34;;;26.36;100.00
3590;BME280;1809;48.470;9.226;2023-08-24T08:56:34;-16903.84;;;26.45;100.00
3590;BME280;1809;48.470;9.226;2023-08-24T08:59:00;-16904.94;;;26.49;100.00
3590;BME280;1809;48.470;9.226;2023-08-24T09:01:30;-16909.81;;;26.67;100.00
3590;BME280;1809;48.470;9.226;2023-08-24T09:03:56;-16905.50;;;26.51;100.00
3590;BME280;1809;48.470;9.226;2023-08-24T09:06:22;-16913.31;;;26.80;100.00
3590;BME280;1809;48.470;9.226;2023-08-24T09:08:49;-16920.81;;;27.07;100.00
3590;BME280;1809;48.470;9.226;2023-08-24T09:11:15;-16921.38;;;27.09;100.00
3590;BME280;1809;48.470;9.226;2023-08-24T09:13:42;-16931.97;;;27.47;100.00
3590;BME280;1809;48.470;9.226;2023-08-24T09:16:08;-16932.25;;;27.48;100.00
3590;BME280;1809;48.470;9.226;2023-08-24T09:18:45;-16936.28;;;27.63;100.00
3590;BME280;1809;48.470;9.226;2023-08-24T09:21:15;-16941.16;;;27.81;100.00
3590;BME280;1809;48.470;9.226;2023-08-24T09:23:45;-16948.09;;;28.06;100.00
3590;BME280;1809;48.470;9.226;2023-08-24T09:26:11;-16945.88;;;27.98;100.00
3590;BME280;1809;48.470;9.226;2023-08-24T09:28:42;-16947.25;;;28.03;100.00
3590;BME280;1809;48.470;9.226;2023-08-24T09:31:07;-16953.66;;;28.26;100.00
3590;BME280;1809;48.470;9.226;2023-08-24T09:33:36;-16954.09;;;28.27;100.00
3590;BME280;1809;48.470;9.226;2023-08-24T09:36:06;-16960.06;;;28.49;100.00
3590;BME280;1809;48.470;9.226;2023-08-24T09:38:31;-16958.94;;;28.45;100.00
3590;BME280;1809;48.470;9.226;2023-08-24T09:40:56;-16961.19;;;28.53;100.00
3590;BME280;1809;48.470;9.226;2023-08-24T09:43:25;-16962.16;;;28.57;100.00
3590;BME280;1809;48.470;9.226;2023-08-24T09:45:55;-16974.09;;;29.00;100.00
3590;BME280;1809;48.470;9.226;2023-08-24T09:48:22;-16975.91;;;29.07;100.00
3590;BME280;1809;48.470;9.226;2023-08-24T09:50:49;-16978.84;;;29.17;100.00
3590;BME280;1809;48.470;9.226;2023-08-24T09:53:32;-16985.66;;;29.42;100.00
3590;BME280;1809;48.470;9.226;2023-08-24T09:56:02;-16988.44;;;29.52;100.00
3590;BME280;1809;48.470;9.226;2023-08-24T09:58:28;-16994.13;;;29.73;100.00
3590;BME280;1809;48.470;9.226;2023-08-24T10:00:54;-16998.00;;;29.87;100.00
3590;BME280;1809;48.470;9.226;2023-08-24T10:03:21;-16999.81;;;29.94;100.00
3590;BME280;1809;48.470;9.226;2023-08-24T10:05:54;-17003.44;;;30.07;100.00
3590;BME280;1809;48.470;9.226;2023-08-24T10:08:26;-17005.09;;;30.13;100.00
3590;BME280;1809;48.470;9.226;2023-08-24T10:10:56;-17000.50;;;29.96;100.00
3590;BME280;1809;48.470;9.226;2023-08-24T10:13:32;-17011.63;;;30.36;100.00
3590;BME280;1809;48.470;9.226;2023-08-24T10:15:59;-17008.97;;;30.27;100.00
3590;BME280;1809;48.470;9.226;2023-08-24T10:18:25;-17017.59;;;30.58;100.00
3590;BME280;1809;48.470;9.226;2023-08-24T10:20:52;-17017.03;;;30.56;100.00
3590;BME280;1809;48.470;9.226;2023-08-24T10:23:19;-17014.41;;;30.47;100.00
3590;BME280;1809;48.470;9.226;2023-08-24T10:25:51;-17025.94;;;30.88;100.00
3590;BME280;1809;48.470;9.226;2023-08-24T10:28:17;-17024.81;;;30.84;100.00
3590;BME280;1809;48.470;9.226;2023-08-24T10:30:44;-17034.53;;;31.20;100.00
3590;BME280;1809;48.470;9.226;2023-08-24T10:33:12;-17028.44;;;30.98;100.00
3590;BME280;1809;48.470;9.226;2023-08-24T10:35:39;-17042.59;;;31.49;100.00
3590;BME280;1809;48.470;9.226;2023-08-24T10:38:06;-17050.06;;;31.76;100.00
3590;BME280;1809;48.470;9.226;2023-08-24T10:40:36;-17054.66;;;31.93;100.00
3590;BME280;1809;48.470;9.226;2023-08-24T10:43:22;-17055.06;;;31.94;100.00
3590;BME280;1809;48.470;9.226;2023-08-24T10:45:57;-17059.50;;;32.11;100.00
3590;BME280;1809;48.470;9.226;2023-08-24T10:48:24;-17065.34;;;32.32;100.00
3590;BME280;1809;48.470;9.226;2023-08-24T10:53:53;-17062.56;;;32.22;100.00
3590;BME280;1809;48.470;9.226;2023-08-24T10:56:19;-17067.13;;;32.38;100.00
3590;BME280;1809;48.470;9.226;2023-08-24T10:58:46;-17075.59;;;32.69;100.00
3590;BME280;1809;48.470;9.226;2023-08-24T11:01:16;-17074.63;;;32.66;100.00
3590;BME280;1809;48.470;9.226;2023-08-24T11:04:06;-17068.66;;;32.44;100.00
3590;BME280;1809;48.470;9.226;2023-08-24T11:06:35;-17076.28;;;32.72;100.00
3590;BME280;1809;48.470;9.226;2023-08-24T11:09:15;-17076.56;;;32.73;100.00
3590;BME280;1809;48.470;9.226;2023-08-24T11:11:41;-17078.38;;;32.79;100.00
3590;BME280;1809;48.470;9.226;2023-08-24T11:14:14;-17079.19;;;32.82;100.00
3590;BME280;1809;48.470;9.226;2023-08-24T11:16:46;-17074.75;;;32.66;100.00
3590;BME280;1809;48.470;9.226;2023-08-24T11:19:12;-17069.34;;;32.46;100.00
3590;BME280;1809;48.470;9.226;2023-08-24T11:21:39;-17062.44;;;32.21;100.00
3590;BME280;1809;48.470;9.226;2023-08-24T11:24:05;-17071.84;;;32.56;100.00
3590;BME280;1809;48.470;9.226;2023-08-24T11:26:31;-17067.28;;;32.39;100.00
3590;BME280;1809;48.470;9.226;2023-08-24T11:28:57;-17074.63;;;32.66;100.00
3590;BME280;1809;48.470;9.226;2023-08-24T11:31:25;-17088.34;;;33.16;100.00
3590;BME280;1809;48.470;9.226;2023-08-24T11:33:54;-17094.72;;;33.39;100.00
3590;BME280;1809;48.470;9.226;2023-08-24T11:36:22;-17099.44;;;33.56;100.00
3590;BME280;1809;48.470;9.226;2023-08-24T11:38:56;-17105.41;;;33.78;100.00
3590;BME280;1809;48.470;9.226;2023-08-24T11:41:22;-17113.00;;;34.05;100.00
3590;BME280;1809;48.470;9.226;2023-08-24T11:43:48;-17117.16;;;34.21;100.00
3590;BME280;1809;48.470;9.226;2023-08-24T11:46:16;-17118.00;;;34.24;100.00
3590;BME280;1809;48.470;9.226;2023-08-24T11:48:43;-17116.91;;;34.20;100.00
3590;BME280;1809;48.470;9.226;2023-08-24T11:51:10;-17116.06;;;34.17;100.00
3590;BME280;1809;48.470;9.226;2023-08-24T11:53:41;-17115.22;;;34.14;100.00
3590;BME280;1809;48.470;9.226;2023-08-24T11:56:13;-17110.94;;;33.98;100.00
3590;BME280;1809;48.470;9.226;2023-08-24T11:58:39;-17118.13;;;34.24;100.00
3590;BME280;1809;48.470;9.226;2023-08-24T12:01:05;-17117.59;;;34.22;100.00
3590;BME280;1809;48.470;9.226;2023-08-24T12:03:31;-17123.25;;;34.43;100.00
3590;BME280;1809;48.470;9.226;2023-08-24T12:06:01;-17128.38;;;34.62;100.00
3590;BME280;1809;48.470;9.226;2023-08-24T12:08:28;-17127.97;;;34.60;100.00
3590;BME280;1809;48.470;9.226;2023-08-24T12:10:53;-17117.03;;;34.20;100.00
3590;BME280;1809;48.470;9.226;2023-08-24T12:13:19;-17120.22;;;34.32;100.00
3590;BME280;1809;48.470;9.226;2023-08-24T12:15:44;-17116.75;;;34.19;100.00
3590;BME280;1809;48.470;9.226;2023-08-24T12:18:12;-17119.66;;;34.30;100.00
3590;BME280;1809;48.470;9.226;2023-08-24T12:20:37;-17110.78;;;33.97;100.00
3590;BME280;1809;48.470;9.226;2023-08-24T12:23:03;-17107.19;;;33.84;100.00
3590;BME280;1809;48.470;9.226;2023-08-24T12:25:28;-17109.13;;;33.91;100.00
3590;BME280;1809;48.470;9.226;2023-08-24T12:28:11;-17106.66;;;33.82;100.00
3590;BME280;1809;48.470;9.226;2023-08-24T12:30:48;-17112.72;;;34.04;100.00
3590;BME280;1809;48.470;9.226;2023-08-24T12:33:28;-17121.88;;;34.38;100.00
3590;BME280;1809;48.470;9.226;2023-08-24T12:35:55;-17126.03;;;34.53;100.00
3590;BME280;1809;48.470;9.226;2023-08-24T12:38:24;-17136.00;;;34.89;100.00
3590;BME280;1809;48.470;9.226;2023-08-24T12:40:51;-17131.72;;;34.74;100.00
3590;BME280;1809;48.470;9.226;2023-08-24T12:43:16;-17131.56;;;34.73;100.00
3590;BME280;1809;48.470;9.226;2023-08-24T12:45:42;-17125.47;;;34.51;100.00
3590;BME280;1809;48.470;9.226;2023-08-24T12:48:08;-17131.72;;;34.74;100.00
3590;BME280;1809;48.470;9.226;2023-08-24T12:50:34;-17134.06;;;34.82;100.00
3590;BME280;1809;48.470;9.226;2023-08-24T12:53:00;-17138.22;;;34.97;100.00
3590;BME280;1809;48.470;9.226;2023-08-24T12:55:26;-17132.41;;;34.76;100.00
3590;BME280;1809;48.470;9.226;2023-08-24T12:57:52;-17121.03;;;34.35;100.00
3590;BME280;1809;48.470;9.226;2023-08-24T13:00:21;-17129.34;;;34.65;100.00
3590;BME280;1809;48.470;9.226;2023-08-24T13:02:48;-17129.63;;;34.66;100.00
3590;BME280;1809;48.470;9.226;2023-08-24T13:05:13;-17130.47;;;34.69;100.00
3590;BME280;1809;48.470;9.226;2023-08-24T13:07:38;-17137.66;;;34.95;100.00